sensor_id;sensor_type;location;lat;lon;timestamp;pressure;altitude;pressure_sealevel;temperature;humidity
16821;BME280;8527;49.740;6.604;2023-06-22T00:05:04;99921.41;;;22.62;93.15
16821;BME280;8527;49.740;6.604;2023-06-22T00:10:03;99915.34;;;22.55;94.97
16821;BME280;8527;49.740;6.604;2023-06-22T00:15:08;99908.47;;;22.35;94.58
16821;BME280;8527;49.740;6.604;2023-06-22T00:20:08;99886.69;;;22.42;96.78
16821;BME280;8527;49.740;6.604;2023-06-22T00:25:08;99855.78;;;22.21;95.66
16821;BME280;8527;49.740;6.604;2023-06-22T00:30:13;99823.13;;;22.23;97.93
16821;BME280;8527;49.740;6.604;2023-06-22T00:35:12;99807.41;;;22.19;99.93
16821;BME280;8527;49.740;6.604;2023-06-22T00:40:14;99797.88;;;22.00;98.77
16821;BME280;8527;49.740;6.604;2023-06-22T00:45:20;99801.50;;;22.05;100.00
16821;BME280;8527;49.740;6.604;2023-06-22T00:50:20;99818.50;;;21.89;100.00
16821;BME280;8527;49.740;6.604;2023-06-22T00:55:19;99849.22;;;22.00;97.39
16821;BME280;8527;49.740;6.604;2023-06-22T01:00:24;99882.63;;;21.82;98.17
16821;BME280;8527;49.740;6.604;2023-06-22T01:05:25;99895.06;;;21.83;99.87
16821;BME280;8527;49.740;6.604;2023-06-22T01:10:30;99894.06;;;21.72;100.00
16821;BME280;8527;49.740;6.604;2023-06-22T01:15:37;99900.97;;;21.80;100.00
16821;BME280;8527;49.740;6.604;2023-06-22T01:20:41;99841.47;;;21.91;100.00
16821;BME280;8527;49.740;6.604;2023-06-22T01:25:47;99727.66;;;20.48;100.00
16821;BME280;8527;49.740;6.604;2023-06-22T01:30:49;99769.13;;;20.83;100.00
16821;BME280;8527;49.740;6.604;2023-06-22T01:35:56;99779.84;;;21.30;100.00
16821;BME280;8527;49.740;6.604;2023-06-22T01:40:58;99783.34;;;21.60;100.00
16821;BME280;8527;49.740;6.604;2023-06-22T01:46:06;99791.38;;;21.55;100.00
16821;BME280;8527;49.740;6.604;2023-06-22T01:51:15;99782.44;;;21.54;100.00
16821;BME280;8527;49.740;6.604;2023-06-22T01:56:16;99796.41;;;21.51;100.00
16821;BME280;8527;49.740;6.604;2023-06-22T02:01:22;99798.34;;;21.39;100.00
16821;BME280;8527;49.740;6.604;2023-06-22T02:06:33;99787.66;;;21.44;100.00
16821;BME280;8527;49.740;6.604;2023-06-22T02:11:36;99788.22;;;21.46;100.00
16821;BME280;8527;49.740;6.604;2023-06-22T02:16:38;99778.81;;;21.48;100.00
16821;BME280;8527;49.740;6.604;2023-06-22T02:21:37;99773.63;;;21.59;100.00
16821;BME280;8527;49.740;6.604;2023-06-22T02:26:39;99766.84;;;21.56;100.00
16821;BME280;8527;49.740;6.604;2023-06-22T02:31:40;99764.28;;;21.49;100.00
16821;BME280;8527;49.740;6.604;2023-06-22T02:36:40;99739.16;;;21.49;100.00
16821;BME280;8527;49.740;6.604;2023-06-22T02:41:45;99738.53;;;21.30;100.00
16821;BME280;8527;49.740;6.604;2023-06-22T02:46:47;99717.13;;;21.11;100.00
16821;BME280;8527;49.740;6.604;2023-06-22T02:51:49;99730.81;;;21.21;100.00
16821;BME280;8527;49.740;6.604;2023-06-22T02:56:51;99720.91;;;20.98;100.00
16821;BME280;8527;49.740;6.604;2023-06-22T03:01:53;99723.81;;;21.08;100.00
16821;BME280;8527;49.740;6.604;2023-06-22T03:06:52;99721.91;;;21.21;100.00
16821;BME280;8527;49.740;6.604;2023-06-22T03:11:50;99717.25;;;21.04;100.00
16821;BME280;8527;49.740;6.604;2023-06-22T03:16:56;99714.03;;;21.19;100.00
16821;BME280;8527;49.740;6.604;2023-06-22T03:21:59;99703.59;;;21.23;100.00
16821;BME280;8527;49.740;6.604;2023-06-22T03:26:58;99704.88;;;21.20;100.00
16821;BME280;8527;49.740;6.604;2023-06-22T03:32:03;99716.09;;;21.29;100.00
16821;BME280;8527;49.740;6.604;2023-06-22T03:37:06;99695.56;;;21.11;100.00
16821;BME280;8527;49.740;6.604;2023-06-22T03:42:06;99697.75;;;21.14;100.00
16821;BME280;8527;49.740;6.604;2023-06-22T03:47:07;99699.13;;;21.17;100.00
16821;BME280;8527;49.740;6.604;2023-06-22T03:52:07;99692.75;;;21.06;100.00
16821;BME280;8527;49.740;6.604;2023-06-22T03:57:07;99689.56;;;21.09;100.00
16821;BME280;8527;49.740;6.604;2023-06-22T04:02:09;99691.69;;;21.07;100.00
16821;BME280;8527;49.740;6.604;2023-06-22T04:07:17;99699.78;;;21.07;100.00
16821;BME280;8527;49.740;6.604;2023-06-22T04:12:18;99696.44;;;20.76;100.00
16821;BME280;8527;49.740;6.604;2023-06-22T04:17:19;99694.09;;;20.79;100.00
16821;BME280;8527;49.740;6.604;2023-06-22T04:22:25;99696.88;;;20.97;100.00
16821;BME280;8527;49.740;6.604;2023-06-22T04:27:26;99688.81;;;20.85;100.00
16821;BME280;8527;49.740;6.604;2023-06-22T04:32:30;99690.25;;;21.16;100.00
16821;BME280;8527;49.740;6.604;2023-06-22T04:37:34;99691.28;;;21.44;100.00
16821;BME280;8527;49.740;6.604;2023-06-22T04:42:38;99685.50;;;21.53;100.00
16821;BME280;8527;49.740;6.604;2023-06-22T04:47:53;99675.75;;;21.98;100.00
16821;BME280;8527;49.740;6.604;2023-06-22T04:52:52;99660.16;;;22.22;100.00
16821;BME280;8527;49.740;6.604;2023-06-22T04:57:50;99665.56;;;22.61;97.98
16821;BME280;8527;49.740;6.604;2023-06-22T05:02:52;99659.78;;;22.75;97.01
16821;BME280;8527;49.740;6.604;2023-06-22T05:07:57;99667.34;;;22.51;98.86
16821;BME280;8527;49.740;6.604;2023-06-22T05:12:56;99666.19;;;22.91;95.14
16821;BME280;8527;49.740;6.604;2023-06-22T05:18:06;99679.84;;;23.01;96.56
16821;BME280;8527;49.740;6.604;2023-06-22T05:23:07;99674.81;;;23.10;96.75
16821;BME280;8527;49.740;6.604;2023-06-22T05:28:11;99690.13;;;22.77;94.43
16821;BME280;8527;49.740;6.604;2023-06-22T05:33:12;99693.69;;;23.27;93.91
16821;BME280;8527;49.740;6.604;2023-06-22T05:38:11;99688.34;;;22.88;93.33
16821;BME280;8527;49.740;6.604;2023-06-22T05:43:10;99690.97;;;22.43;97.15
16821;BME280;8527;49.740;6.604;2023-06-22T05:48:08;99693.06;;;22.36;97.84
16821;BME280;8527;49.740;6.604;2023-06-22T05:53:10;99681.78;;;22.05;98.70
16821;BME280;8527;49.740;6.604;2023-06-22T05:58:11;99697.47;;;22.59;96.30
16821;BME280;8527;49.740;6.604;2023-06-22T06:03:10;99675.56;;;22.04;99.05
16821;BME280;8527;49.740;6.604;2023-06-22T06:08:14;99692.94;;;22.65;95.43
16821;BME280;8527;49.740;6.604;2023-06-22T06:13:15;99684.78;;;22.60;95.91
16821;BME280;8527;49.740;6.604;2023-06-22T06:18:13;99678.44;;;22.71;94.54
16821;BME280;8527;49.740;6.604;2023-06-22T06:23:17;99674.56;;;23.12;91.85
16821;BME280;8527;49.740;6.604;2023-06-22T06:28:15;99684.41;;;22.73;93.54
16821;BME280;8527;49.740;6.604;2023-06-22T06:33:14;99676.03;;;23.80;88.75
16821;BME280;8527;49.740;6.604;2023-06-22T06:38:19;99675.00;;;23.86;87.82
16821;BME280;8527;49.740;6.604;2023-06-22T06:43:17;99668.13;;;24.06;86.51
16821;BME280;8527;49.740;6.604;2023-06-22T06:48:15;99661.66;;;24.12;85.27
16821;BME280;8527;49.740;6.604;2023-06-22T06:53:19;99654.72;;;23.94;86.22
16821;BME280;8527;49.740;6.604;2023-06-22T06:58:17;99656.38;;;24.38;83.58
16821;BME280;8527;49.740;6.604;2023-06-22T07:03:18;99642.59;;;23.64;87.00
16821;BME280;8527;49.740;6.604;2023-06-22T07:08:19;99641.03;;;23.73;84.77
16821;BME280;8527;49.740;6.604;2023-06-22T07:13:17;99621.47;;;23.66;86.04
16821;BME280;8527;49.740;6.604;2023-06-22T07:18:15;99603.50;;;24.35;83.48
16821;BME280;8527;49.740;6.604;2023-06-22T07:23:14;99598.81;;;24.20;83.81
16821;BME280;8527;49.740;6.604;2023-06-22T07:28:15;99588.53;;;24.96;82.89
16821;BME280;8527;49.740;6.604;2023-06-22T07:33:14;99578.81;;;25.37;80.30
16821;BME280;8527;49.740;6.604;2023-06-22T07:38:13;99564.66;;;25.87;78.25
16821;BME280;8527;49.740;6.604;2023-06-22T07:43:14;99560.56;;;25.84;77.68
16821;BME280;8527;49.740;6.604;2023-06-22T07:48:15;99586.13;;;25.47;79.27
16821;BME280;8527;49.740;6.604;2023-06-22T07:53:17;99546.22;;;25.47;80.43
16821;BME280;8527;49.740;6.604;2023-06-22T07:58:15;99521.91;;;26.03;76.77
16821;BME280;8527;49.740;6.604;2023-06-22T08:03:18;99514.28;;;26.10;77.46
16821;BME280;8527;49.740;6.604;2023-06-22T08:08:17;99486.97;;;25.75;78.80
16821;BME280;8527;49.740;6.604;2023-06-22T08:13:15;99465.72;;;25.82;78.31
16821;BME280;8527;49.740;6.604;2023-06-22T08:18:14;99451.41;;;25.46;79.29
16821;BME280;8527;49.740;6.604;2023-06-22T08:23:16;99432.72;;;25.08;81.85
16821;BME280;8527;49.740;6.604;2023-06-22T08:28:14;99423.19;;;25.36;80.48
16821;BME280;8527;49.740;6.604;2023-06-22T08:33:12;99448.50;;;25.00;79.83
16821;BME280;8527;49.740;6.604;2023-06-22T08:38:11;99461.78;;;24.86;80.62
16821;BME280;8527;49.740;6.604;2023-06-22T08:43:13;99463.44;;;25.03;80.43
16821;BME280;8527;49.740;6.604;2023-06-22T08:48:15;99461.50;;;25.24;80.34
16821;BME280;8527;49.740;6.604;2023-06-22T08:53:17;99419.19;;;24.92;82.48
16821;BME280;8527;49.740;6.604;2023-06-22T08:58:20;99411.84;;;24.77;84.21
16821;BME280;8527;49.740;6.604;2023-06-22T09:03:19;99539.13;;;25.20;82.55
16821;BME280;8527;49.740;6.604;2023-06-22T09:08:25;99674.91;;;25.31;79.90
16821;BME280;8527;49.740;6.604;2023-06-22T09:13:30;99631.19;;;25.06;89.59
16821;BME280;8527;49.740;6.604;2023-06-22T09:18:31;99586.50;;;24.61;93.97
16821;BME280;8527;49.740;6.604;2023-06-22T09:23:35;99573.59;;;24.83;93.76
16821;BME280;8527;49.740;6.604;2023-06-22T09:28:36;99532.91;;;25.09;94.42
16821;BME280;8527;49.740;6.604;2023-06-22T09:33:39;99548.09;;;25.10;93.47
16821;BME280;8527;49.740;6.604;2023-06-22T09:38:38;99563.31;;;25.22;93.22
16821;BME280;8527;49.740;6.604;2023-06-22T09:43:39;99557.91;;;25.42;93.04
16821;BME280;8527;49.740;6.604;2023-06-22T09:48:40;99562.19;;;25.85;91.22
16821;BME280;8527;49.740;6.604;2023-06-22T09:53:38;99576.09;;;25.68;92.42
16821;BME280;8527;49.740;6.604;2023-06-22T09:58:39;99560.59;;;25.68;91.20
16821;BME280;8527;49.740;6.604;2023-06-22T10:03:43;99533.38;;;25.89;90.62
16821;BME280;8527;49.740;6.604;2023-06-22T10:08:41;99518.03;;;26.30;89.03
16821;BME280;8527;49.740;6.604;2023-06-22T10:13:49;99503.69;;;27.04;85.44
16821;BME280;8527;49.740;6.604;2023-06-22T10:18:47;99501.66;;;25.33;85.59
16821;BME280;8527;49.740;6.604;2023-06-22T10:23:48;99491.59;;;25.69;89.64
16821;BME280;8527;49.740;6.604;2023-06-22T10:28:49;99497.63;;;25.30;90.94
16821;BME280;8527;49.740;6.604;2023-06-22T10:33:48;99493.50;;;25.43;88.30
16821;BME280;8527;49.740;6.604;2023-06-22T10:38:47;99479.44;;;25.05;92.63
16821;BME280;8527;49.740;6.604;2023-06-22T10:43:45;99477.00;;;25.08;92.17
16821;BME280;8527;49.740;6.604;2023-06-22T10:48:52;99475.31;;;25.38;91.77
16821;BME280;8527;49.740;6.604;2023-06-22T10:53:54;99461.41;;;25.71;91.24
16821;BME280;8527;49.740;6.604;2023-06-22T10:58:52;99445.69;;;25.63;88.15
16821;BME280;8527;49.740;6.604;2023-06-22T11:03:56;99440.59;;;25.20;90.39
16821;BME280;8527;49.740;6.604;2023-06-22T11:08:54;99436.44;;;25.59;89.03
16821;BME280;8527;49.740;6.604;2023-06-22T11:14:01;99427.63;;;25.93;86.72
16821;BME280;8527;49.740;6.604;2023-06-22T11:19:04;99403.19;;;26.38;83.96
16821;BME280;8527;49.740;6.604;2023-06-22T11:24:02;99410.31;;;26.34;82.20
16821;BME280;8527;49.740;6.604;2023-06-22T11:29:01;99400.16;;;26.45;79.67
16821;BME280;8527;49.740;6.604;2023-06-22T11:34:05;99390.47;;;26.98;79.20
16821;BME280;8527;49.740;6.604;2023-06-22T11:39:09;99382.31;;;26.63;78.61
16821;BME280;8527;49.740;6.604;2023-06-22T11:44:23;99375.97;;;26.73;79.53
16821;BME280;8527;49.740;6.604;2023-06-22T11:49:24;99354.09;;;26.88;78.36
16821;BME280;8527;49.740;6.604;2023-06-22T11:54:23;99337.31;;;27.05;78.08
16821;BME280;8527;49.740;6.604;2023-06-22T11:59:23;99330.88;;;26.96;77.44
16821;BME280;8527;49.740;6.604;2023-06-22T12:04:24;99330.28;;;27.23;75.54
16821;BME280;8527;49.740;6.604;2023-06-22T12:09:22;99310.88;;;27.30;74.90
16821;BME280;8527;49.740;6.604;2023-06-22T12:14:21;99306.59;;;27.67;75.16
16821;BME280;8527;49.740;6.604;2023-06-22T12:19:19;99301.22;;;28.01;74.02
16821;BME280;8527;49.740;6.604;2023-06-22T12:24:27;99296.81;;;28.38;73.10
16821;BME280;8527;49.740;6.604;2023-06-22T12:29:25;99283.63;;;28.45;71.66
16821;BME280;8527;49.740;6.604;2023-06-22T12:34:23;99292.53;;;28.51;71.55
16821;BME280;8527;49.740;6.604;2023-06-22T12:39:22;99262.53;;;28.18;73.31
16821;BME280;8527;49.740;6.604;2023-06-22T12:44:23;99262.28;;;28.47;71.31
16821;BME280;8527;49.740;6.604;2023-06-22T12:49:21;99229.94;;;28.41;73.24
16821;BME280;8527;49.740;6.604;2023-06-22T12:54:22;99208.75;;;28.18;72.43
16821;BME280;8527;49.740;6.604;2023-06-22T12:59:23;99190.91;;;28.68;73.02
16821;BME280;8527;49.740;6.604;2023-06-22T13:04:21;99211.25;;;29.04;74.62
16821;BME280;8527;49.740;6.604;2023-06-22T13:09:20;99235.63;;;29.00;74.47
16821;BME280;8527;49.740;6.604;2023-06-22T13:14:24;99254.72;;;28.44;85.66
16821;BME280;8527;49.740;6.604;2023-06-22T13:19:26;99217.78;;;28.00;90.77
16821;BME280;8527;49.740;6.604;2023-06-22T13:24:27;99348.97;;;27.35;85.04
16821;BME280;8527;49.740;6.604;2023-06-22T13:29:28;99323.88;;;25.09;89.50
16821;BME280;8527;49.740;6.604;2023-06-22T13:34:27;99250.88;;;25.63;87.26
16821;BME280;8527;49.740;6.604;2023-06-22T13:39:28;99251.66;;;25.69;85.59
16821;BME280;8527;49.740;6.604;2023-06-22T13:44:29;99269.38;;;25.61;88.05
16821;BME280;8527;49.740;6.604;2023-06-22T13:49:27;99283.81;;;25.46;84.73
16821;BME280;8527;49.740;6.604;2023-06-22T13:54:25;99282.22;;;25.40;87.66
16821;BME280;8527;49.740;6.604;2023-06-22T13:59:29;99300.47;;;25.29;87.21
16821;BME280;8527;49.740;6.604;2023-06-22T14:04:30;99301.56;;;25.23;86.40
16821;BME280;8527;49.740;6.604;2023-06-22T14:09:34;99290.25;;;25.05;85.82
16821;BME280;8527;49.740;6.604;2023-06-22T14:14:35;99283.44;;;25.08;87.07
16821;BME280;8527;49.740;6.604;2023-06-22T14:19:34;99281.09;;;24.80;88.19
16821;BME280;8527;49.740;6.604;2023-06-22T14:24:32;99279.22;;;24.44;90.46
16821;BME280;8527;49.740;6.604;2023-06-22T14:29:30;99289.25;;;24.54;89.85
16821;BME280;8527;49.740;6.604;2023-06-22T14:34:31;99297.38;;;24.49;89.36
16821;BME280;8527;49.740;6.604;2023-06-22T14:39:33;99308.75;;;24.77;87.66
16821;BME280;8527;49.740;6.604;2023-06-22T14:44:35;99287.25;;;25.07;90.36
16821;BME280;8527;49.740;6.604;2023-06-22T14:49:36;99280.28;;;24.85;85.82
16821;BME280;8527;49.740;6.604;2023-06-22T14:54:34;99295.47;;;24.65;86.77
16821;BME280;8527;49.740;6.604;2023-06-22T14:59:32;99285.97;;;24.83;87.83
16821;BME280;8527;49.740;6.604;2023-06-22T15:04:36;99282.13;;;24.95;85.24
16821;BME280;8527;49.740;6.604;2023-06-22T15:09:36;99279.13;;;25.02;87.85
16821;BME280;8527;49.740;6.604;2023-06-22T15:14:38;99272.78;;;25.27;87.11
16821;BME280;8527;49.740;6.604;2023-06-22T15:19:43;99269.44;;;25.40;87.15
16821;BME280;8527;49.740;6.604;2023-06-22T15:24:41;99241.69;;;25.59;90.08
16821;BME280;8527;49.740;6.604;2023-06-22T15:29:41;99229.44;;;25.62;85.19
16821;BME280;8527;49.740;6.604;2023-06-22T15:34:44;99236.25;;;25.59;84.96
16821;BME280;8527;49.740;6.604;2023-06-22T15:39:45;99242.59;;;25.39;86.05
16821;BME280;8527;49.740;6.604;2023-06-22T15:44:43;99261.50;;;25.60;88.37
16821;BME280;8527;49.740;6.604;2023-06-22T15:49:45;99257.78;;;25.40;86.83
16821;BME280;8527;49.740;6.604;2023-06-22T15:54:45;99270.00;;;25.37;82.03
16821;BME280;8527;49.740;6.604;2023-06-22T15:59:46;99280.34;;;25.35;79.12
16821;BME280;8527;49.740;6.604;2023-06-22T16:04:47;99290.16;;;25.31;78.59
16821;BME280;8527;49.740;6.604;2023-06-22T16:09:46;99272.56;;;25.08;76.45
16821;BME280;8527;49.740;6.604;2023-06-22T16:14:44;99276.56;;;25.26;77.60
16821;BME280;8527;49.740;6.604;2023-06-22T16:19:48;99271.44;;;25.19;75.78
16821;BME280;8527;49.740;6.604;2023-06-22T16:24:50;99266.50;;;25.32;76.03
16821;BME280;8527;49.740;6.604;2023-06-22T16:29:51;99266.53;;;25.26;75.80
16821;BME280;8527;49.740;6.604;2023-06-22T16:34:52;99286.91;;;25.29;75.60
16821;BME280;8527;49.740;6.604;2023-06-22T16:39:50;99285.13;;;24.93;76.29
16821;BME280;8527;49.740;6.604;2023-06-22T16:44:52;99282.63;;;25.02;75.65
16821;BME280;8527;49.740;6.604;2023-06-22T16:49:53;99285.09;;;25.04;74.79
16821;BME280;8527;49.740;6.604;2023-06-22T16:54:51;99285.41;;;24.86;75.25
16821;BME280;8527;49.740;6.604;2023-06-22T16:59:51;99303.88;;;24.69;75.58
16821;BME280;8527;49.740;6.604;2023-06-22T17:04:55;99311.47;;;24.51;75.83
16821;BME280;8527;49.740;6.604;2023-06-22T17:09:54;99303.34;;;24.46;75.77
16821;BME280;8527;49.740;6.604;2023-06-22T17:14:54;99308.78;;;24.36;77.09
16821;BME280;8527;49.740;6.604;2023-06-22T17:19:55;99336.19;;;24.34;77.12
16821;BME280;8527;49.740;6.604;2023-06-22T17:24:57;99340.50;;;24.45;77.93
16821;BME280;8527;49.740;6.604;2023-06-22T17:30:07;99340.22;;;24.26;77.68
16821;BME280;8527;49.740;6.604;2023-06-22T17:35:10;99351.34;;;24.30;77.72
16821;BME280;8527;49.740;6.604;2023-06-22T17:40:13;99361.59;;;24.07;77.50
16821;BME280;8527;49.740;6.604;2023-06-22T17:45:15;99368.34;;;23.89;77.87
16821;BME280;8527;49.740;6.604;2023-06-22T17:50:21;99393.91;;;23.55;79.23
16821;BME280;8527;49.740;6.604;2023-06-22T17:55:20;99405.53;;;23.51;78.75
16821;BME280;8527;49.740;6.604;2023-06-22T18:00:20;99414.41;;;23.36;78.45
16821;BME280;8527;49.740;6.604;2023-06-22T18:05:28;99427.66;;;23.32;79.75
16821;BME280;8527;49.740;6.604;2023-06-22T18:10:31;99428.31;;;23.12;79.48
16821;BME280;8527;49.740;6.604;2023-06-22T18:15:30;99442.94;;;23.16;79.82
16821;BME280;8527;49.740;6.604;2023-06-22T18:20:31;99449.09;;;23.06;80.45
16821;BME280;8527;49.740;6.604;2023-06-22T18:25:31;99461.75;;;23.00;80.92
16821;BME280;8527;49.740;6.604;2023-06-22T18:30:32;99473.47;;;23.11;79.29
16821;BME280;8527;49.740;6.604;2023-06-22T18:35:36;99474.00;;;22.75;79.70
16821;BME280;8527;49.740;6.604;2023-06-22T18:40:35;99483.28;;;22.57;80.98
16821;BME280;8527;49.740;6.604;2023-06-22T18:45:36;99502.78;;;22.59;80.65
16821;BME280;8527;49.740;6.604;2023-06-22T18:50:41;99526.91;;;22.66;79.57
16821;BME280;8527;49.740;6.604;2023-06-22T18:55:43;99540.59;;;22.54;80.81
16821;BME280;8527;49.740;6.604;2023-06-22T19:00:42;99550.94;;;22.40;81.54
16821;BME280;8527;49.740;6.604;2023-06-22T19:05:43;99571.81;;;22.45;81.09
16821;BME280;8527;49.740;6.604;2023-06-22T19:10:42;99580.41;;;22.42;81.08
16821;BME280;8527;49.740;6.604;2023-06-22T19:15:41;99582.97;;;22.09;82.43
16821;BME280;8527;49.740;6.604;2023-06-22T19:20:46;99599.19;;;22.09;83.04
16821;BME280;8527;49.740;6.604;2023-06-22T19:25:45;99599.25;;;22.14;82.54
16821;BME280;8527;49.740;6.604;2023-06-22T19:30:44;99605.34;;;22.04;82.20
16821;BME280;8527;49.740;6.604;2023-06-22T19:35:45;99610.75;;;22.04;83.13
16821;BME280;8527;49.740;6.604;2023-06-22T19:40:44;99631.47;;;21.99;82.21
16821;BME280;8527;49.740;6.604;2023-06-22T19:45:43;99631.06;;;21.73;82.80
16821;BME280;8527;49.740;6.604;2023-06-22T19:50:45;99639.06;;;21.85;82.32
16821;BME280;8527;49.740;6.604;2023-06-22T19:55:44;99641.91;;;21.61;82.66
16821;BME280;8527;49.740;6.604;2023-06-22T20:00:44;99654.03;;;21.58;82.83
16821;BME280;8527;49.740;6.604;2023-06-22T20:05:53;99652.59;;;21.39;83.78
16821;BME280;8527;49.740;6.604;2023-06-22T20:10:55;99669.47;;;21.46;83.17
16821;BME280;8527;49.740;6.604;2023-06-22T20:15:57;99683.69;;;21.41;83.66
16821;BME280;8527;49.740;6.604;2023-06-22T20:21:12;99688.59;;;21.15;86.58
16821;BME280;8527;49.740;6.604;2023-06-22T20:26:13;99684.94;;;20.69;87.11
16821;BME280;8527;49.740;6.604;2023-06-22T20:31:16;99700.75;;;20.77;82.17
16821;BME280;8527;49.740;6.604;2023-06-22T20:36:21;99706.72;;;20.79;79.91
16821;BME280;8527;49.740;6.604;2023-06-22T20:41:19;99713.69;;;20.51;83.36
16821;BME280;8527;49.740;6.604;2023-06-22T20:46:23;99717.56;;;20.19;85.39
16821;BME280;8527;49.740;6.604;2023-06-22T20:51:28;99721.75;;;20.39;84.12
16821;BME280;8527;49.740;6.604;2023-06-22T20:56:30;99733.38;;;20.40;85.27
16821;BME280;8527;49.740;6.604;2023-06-22T21:01:29;99733.34;;;20.16;86.08
16821;BME280;8527;49.740;6.604;2023-06-22T21:06:30;99739.53;;;20.04;87.10
16821;BME280;8527;49.740;6.604;2023-06-22T21:11:29;99750.00;;;20.13;87.08
16821;BME280;8527;49.740;6.604;2023-06-22T21:16:27;99763.78;;;20.04;86.86
16821;BME280;8527;49.740;6.604;2023-06-22T21:21:25;99763.69;;;20.11;87.83
16821;BME280;8527;49.740;6.604;2023-06-22T21:26:26;99776.09;;;19.81;90.11
16821;BME280;8527;49.740;6.604;2023-06-22T21:31:25;99788.38;;;19.77;90.03
16821;BME280;8527;49.740;6.604;2023-06-22T21:36:30;99798.06;;;19.48;90.21
16821;BME280;8527;49.740;6.604;2023-06-22T21:41:33;99797.13;;;19.73;88.80
16821;BME280;8527;49.740;6.604;2023-06-22T21:46:32;99794.81;;;19.76;88.93
16821;BME280;8527;49.740;6.604;2023-06-22T21:51:30;99785.91;;;19.76;89.60
16821;BME280;8527;49.740;6.604;2023-06-22T21:56:35;99787.91;;;19.80;88.60
16821;BME280;8527;49.740;6.604;2023-06-22T22:01:33;99797.44;;;19.64;89.05
16821;BME280;8527;49.740;6.604;2023-06-22T22:06:38;99815.59;;;19.69;88.74
16821;BME280;8527;49.740;6.604;2023-06-22T22:11:39;99815.69;;;19.62;88.79
16821;BME280;8527;49.740;6.604;2023-06-22T22:16:40;99832.53;;;19.58;89.15
16821;BME280;8527;49.740;6.604;2023-06-22T22:21:39;99846.84;;;19.70;88.88
16821;BME280;8527;49.740;6.604;2023-06-22T22:26:42;99861.97;;;19.71;88.76
16821;BME280;8527;49.740;6.604;2023-06-22T22:31:41;99853.53;;;19.67;88.98
16821;BME280;8527;49.740;6.604;2023-06-22T22:36:39;99864.72;;;19.64;88.35
16821;BME280;8527;49.740;6.604;2023-06-22T22:41:40;99866.19;;;19.48;88.90
16821;BME280;8527;49.740;6.604;2023-06-22T22:46:39;99877.75;;;19.49;88.76
16821;BME280;8527;49.740;6.604;2023-06-22T22:51:44;99882.53;;;19.47;89.89
16821;BME280;8527;49.740;6.604;2023-06-22T22:56:45;99896.06;;;19.59;89.01
16821;BME280;8527;49.740;6.604;2023-06-22T23:01:45;99903.31;;;19.58;89.60
16821;BME280;8527;49.740;6.604;2023-06-22T23:06:43;99904.06;;;19.47;91.16
16821;BME280;8527;49.740;6.604;2023-06-22T23:11:42;99903.09;;;19.41;91.88
16821;BME280;8527;49.740;6.604;2023-06-22T23:16:46;99908.03;;;19.25;93.50
16821;BME280;8527;49.740;6.604;2023-06-22T23:21:44;99926.78;;;19.32;93.67
16821;BME280;8527;49.740;6.604;2023-06-22T23:26:46;99937.31;;;19.34;94.36
16821;BME280;8527;49.740;6.604;2023-06-22T23:31:48;99950.47;;;19.42;94.25
16821;BME280;8527;49.740;6.604;2023-06-22T23:36:49;99955.78;;;19.49;95.00
16821;BME280;8527;49.740;6.604;2023-06-22T23:41:51;99961.16;;;19.49;93.96
16821;BME280;8527;49.740;6.604;2023-06-22T23:46:52;99964.78;;;19.43;94.65
16821;BME280;8527;49.740;6.604;2023-06-22T23:51:53;99973.88;;;19.42;95.08
16821;BME280;8527;49.740;6.604;2023-06-22T23:56:53;99975.81;;;19.34;94.75
